createdAt,value
2019-04-29T00:00:00.173Z,73.91
2019-04-29T00:00:40.773Z,74.19
2019-04-29T00:01:21.350Z,73.91
2019-04-29T00:02:01.918Z,73.81
2019-04-29T00:02:42.485Z,74.57
2019-04-29T00:03:23.035Z,74.57
2019-04-29T00:04:03.625Z,74.38
2019-04-29T00:04:44.290Z,74.29
2019-04-29T00:05:24.870Z,74.57
2019-04-29T00:06:05.462Z,74.29
2019-04-29T00:06:46.020Z,74.77
2019-04-29T00:07:26.689Z,74.57
2019-04-29T00:08:07.308Z,74.57
2019-04-29T00:08:47.881Z,74.38
2019-04-29T00:09:30.911Z,74.38
2019-04-29T00:10:09.018Z,74.19
2019-04-29T00:10:49.575Z,74.1
2019-04-29T00:11:30.164Z,74.19
2019-04-29T00:12:10.739Z,73.91
2019-04-29T00:12:51.339Z,74.01
2019-04-29T00:13:31.902Z,73.62
2019-04-29T00:14:12.477Z,73.91
2019-04-29T00:14:53.039Z,74.29
2019-04-29T00:15:33.595Z,74.38
2019-04-29T00:16:14.172Z,74.1
2019-04-29T00:16:54.726Z,74.38
2019-04-29T00:17:35.308Z,74.19
2019-04-29T00:18:15.870Z,73.91
2019-04-29T00:18:56.466Z,74.01
2019-04-29T00:19:37.056Z,74.1
2019-04-29T00:20:17.617Z,74.19
2019-04-29T00:20:58.217Z,74.29
2019-04-29T00:21:38.758Z,74.01
2019-04-29T00:22:19.321Z,74.19
2019-04-29T00:22:59.880Z,74.1
2019-04-29T00:23:40.455Z,73.91
2019-04-29T00:24:21.040Z,74.67
2019-04-29T00:25:01.660Z,74.29
2019-04-29T00:25:42.201Z,75.05
2019-04-29T00:26:22.828Z,74.96
2019-04-29T00:27:03.383Z,74.48
2019-04-29T00:27:44.011Z,74.77
2019-04-29T00:28:24.595Z,74.86
2019-04-29T00:29:05.184Z,74.67
2019-04-29T00:29:45.782Z,74.38
2019-04-29T00:30:26.337Z,74.57
2019-04-29T00:31:06.924Z,74.38
2019-04-29T00:31:47.489Z,74.38
2019-04-29T00:32:28.067Z,74.57
2019-04-29T00:33:08.684Z,74.38
2019-04-29T00:33:49.232Z,74.57
2019-04-29T00:34:29.818Z,75.05
2019-04-29T00:35:10.429Z,74.48
2019-04-29T00:35:51.023Z,74.96
2019-04-29T00:36:31.666Z,74.67
2019-04-29T00:37:12.185Z,74.77
2019-04-29T00:37:52.774Z,75.15
2019-04-29T00:38:33.372Z,75.05
2019-04-29T00:39:13.925Z,75.34
2019-04-29T00:39:54.484Z,75.05
2019-04-29T00:40:35.054Z,75.43
2019-04-29T00:41:15.593Z,76.2
2019-04-29T00:41:56.158Z,76.01
2019-04-29T00:42:36.722Z,75.34
2019-04-29T00:43:17.302Z,76.01
2019-04-29T00:43:57.845Z,75.72
2019-04-29T00:44:38.415Z,75.24
2019-04-29T00:45:18.997Z,75.72
2019-04-29T00:45:59.564Z,76.1
2019-04-29T00:46:40.149Z,76.1
2019-04-29T00:47:20.732Z,75.91
2019-04-29T00:48:01.335Z,76.2
2019-04-29T00:48:41.941Z,76.2
2019-04-29T00:49:22.543Z,76.82
2019-04-29T00:50:03.119Z,76.54
2019-04-29T00:50:43.685Z,77.06
2019-04-29T00:51:24.229Z,76.92
2019-04-29T00:52:04.781Z,77.01
2019-04-29T00:52:45.382Z,76.96
2019-04-29T00:53:25.981Z,76.64
2019-04-29T00:54:06.581Z,76.92
2019-04-29T00:54:47.090Z,77.01
2019-04-29T00:55:27.682Z,76.92
2019-04-29T00:56:08.272Z,76.64
2019-04-29T00:56:48.852Z,77.01
2019-04-29T00:57:29.440Z,77.2
2019-04-29T00:58:10.013Z,76.92
2019-04-29T00:58:50.620Z,76.73
2019-04-29T00:59:31.179Z,77.01
2019-04-29T01:00:11.734Z,76.86
2019-04-29T01:00:52.327Z,76.82
2019-04-29T01:01:32.894Z,76.82
2019-04-29T01:02:13.497Z,77.15
2019-04-29T01:05:12.256Z,77.2
2019-04-29T01:05:52.884Z,77.2
2019-04-29T01:06:33.430Z,76.82
2019-04-29T01:07:14.023Z,77.11
2019-04-29T01:07:54.639Z,77.4
2019-04-29T01:08:35.203Z,77.49
2019-04-29T01:09:15.848Z,77.49
2019-04-29T01:09:56.393Z,77.44
2019-04-29T01:10:36.950Z,77.72
2019-04-29T01:11:17.545Z,77.72
2019-04-29T01:11:58.456Z,77.06
2019-04-29T01:12:39.042Z,76.57
2019-04-29T01:13:19.633Z,76.77
2019-04-29T01:14:00.194Z,77.34
2019-04-29T01:14:40.766Z,77.06
2019-04-29T01:15:21.315Z,77.06
2019-04-29T01:16:01.960Z,76.82
2019-04-29T01:16:42.527Z,76.96
2019-04-29T01:17:23.100Z,77.25
2019-04-29T01:18:03.702Z,77.01
2019-04-29T01:18:44.236Z,77.15
2019-04-29T01:19:24.840Z,76.86
2019-04-29T01:20:05.453Z,77.15
2019-04-29T01:20:46.003Z,77.49
2019-04-29T01:21:26.643Z,77.44
2019-04-29T01:22:07.170Z,77.49
2019-04-29T01:22:47.776Z,77.49
2019-04-29T01:23:28.326Z,78.06
2019-04-29T01:24:08.913Z,77.69
2019-04-29T01:24:49.444Z,77.97
2019-04-29T01:25:29.982Z,78.06
2019-04-29T01:26:10.559Z,78.06
2019-04-29T01:26:51.134Z,78.16
2019-04-29T01:27:31.703Z,78.16
2019-04-29T01:28:12.250Z,78.25
2019-04-29T01:28:52.818Z,78.44
2019-04-29T01:29:33.377Z,78.35
2019-04-29T01:30:13.949Z,78.35
2019-04-29T01:30:54.520Z,78.64
2019-04-29T01:31:35.151Z,78.64
2019-04-29T01:32:15.709Z,79.11
2019-04-29T01:32:56.332Z,79.02
2019-04-29T01:33:36.909Z,79.02
2019-04-29T01:34:17.455Z,79.11
2019-04-29T01:34:58.030Z,79.11
2019-04-29T01:37:56.876Z,78.92
2019-04-29T01:38:37.420Z,79.11
2019-04-29T01:39:18.145Z,79.02
2019-04-29T01:39:58.726Z,79.21
2019-04-29T01:40:39.309Z,79.11
2019-04-29T01:41:19.893Z,79.49
2019-04-29T01:42:00.473Z,79.3
2019-04-29T01:42:41.067Z,79.68
2019-04-29T01:43:21.644Z,79.68
2019-04-29T01:44:02.244Z,80.54
2019-04-29T01:44:42.838Z,80.26
2019-04-29T01:45:23.470Z,80.64
2019-04-29T01:46:04.075Z,80.64
2019-04-29T01:46:44.634Z,81.02
2019-04-29T01:47:25.289Z,81.21
2019-04-29T01:48:05.848Z,81.4
2019-04-29T01:48:46.422Z,81.65
2019-04-29T01:49:27.033Z,81.26
2019-04-29T01:50:07.599Z,82.21
2019-04-29T01:50:48.151Z,82.31
2019-04-29T01:51:28.759Z,82.21
2019-04-29T01:52:09.323Z,82.31
2019-04-29T01:52:49.883Z,82.5
2019-04-29T01:53:30.437Z,82.79
2019-04-29T01:54:10.995Z,82.5
2019-04-29T01:54:51.561Z,82.6
2019-04-29T01:55:32.176Z,82.89
2019-04-29T01:56:12.924Z,82.6
2019-04-29T01:56:53.484Z,82.79
2019-04-29T01:57:34.044Z,82.79
2019-04-29T01:58:14.616Z,82.5
2019-04-29T01:58:55.175Z,82.69
2019-04-29T01:59:35.749Z,82.41
2019-04-29T02:00:16.301Z,82.98
2019-04-29T02:00:56.869Z,82.35
2019-04-29T02:01:37.474Z,82.5
2019-04-29T02:02:18.071Z,82.41
2019-04-29T02:02:58.701Z,83.07
2019-04-29T02:03:39.256Z,83.26
2019-04-29T02:04:19.809Z,83.65
2019-04-29T02:05:00.514Z,82.98
2019-04-29T02:05:41.072Z,82.79
2019-04-29T02:06:21.626Z,82.5
2019-04-29T02:07:02.187Z,82.98
2019-04-29T02:07:42.748Z,82.69
2019-04-29T02:08:23.339Z,82.98
2019-04-29T02:09:03.911Z,83.59
2019-04-29T02:09:44.485Z,83.69
2019-04-29T02:10:25.044Z,83.31
2019-04-29T02:11:05.646Z,82.73
2019-04-29T02:11:46.422Z,83.26
2019-04-29T02:12:27.010Z,83.31
2019-04-29T02:13:07.574Z,83.5
2019-04-29T02:13:48.143Z,83.21
2019-04-29T02:14:28.696Z,83.88
2019-04-29T02:15:09.241Z,83.4
2019-04-29T02:15:49.793Z,83.5
2019-04-29T02:16:30.364Z,83.31
2019-04-29T02:17:10.966Z,83.31
2019-04-29T02:17:51.478Z,83.5
2019-04-29T02:18:32.049Z,83.07
2019-04-29T02:19:12.636Z,83.55
2019-04-29T02:19:53.228Z,83.45
2019-04-29T02:20:33.782Z,83.84
2019-04-29T02:21:14.341Z,83.93
2019-04-29T02:21:54.893Z,84.22
2019-04-29T02:22:35.461Z,84.69
2019-04-29T02:23:16.031Z,84.22
2019-04-29T02:23:56.595Z,84.69
2019-04-29T02:24:37.166Z,84.69
2019-04-29T02:25:17.743Z,84.69
2019-04-29T02:25:58.361Z,84.5
2019-04-29T02:26:38.927Z,84.79
2019-04-29T02:27:19.638Z,84.6
2019-04-29T02:28:00.226Z,84.69
2019-04-29T02:28:40.771Z,84.88
2019-04-29T02:29:21.304Z,84.69
2019-04-29T02:30:01.919Z,84.5
2019-04-29T02:30:42.410Z,84.6
2019-04-29T02:31:22.982Z,84.41
2019-04-29T02:32:03.578Z,84.5
2019-04-29T02:32:44.166Z,84.88
2019-04-29T02:33:24.804Z,84.5
2019-04-29T02:34:05.381Z,84.98
2019-04-29T02:34:45.938Z,84.98
2019-04-29T02:35:26.486Z,85.17
2019-04-29T02:36:07.091Z,84.69
2019-04-29T02:36:47.639Z,84.98
2019-04-29T02:37:28.216Z,85.64
2019-04-29T02:38:08.794Z,85.55
2019-04-29T02:38:49.368Z,85.36
2019-04-29T02:39:29.931Z,85.17
2019-04-29T02:40:10.502Z,85.17
2019-04-29T02:40:51.111Z,85.17
2019-04-29T02:41:31.658Z,85.84
2019-04-29T02:43:44.454Z,84.98
2019-04-29T02:44:25.036Z,85.17
2019-04-29T02:45:05.598Z,84.98
2019-04-29T02:45:46.155Z,85.12
2019-04-29T02:46:26.713Z,85.12
2019-04-29T02:47:07.300Z,84.88
2019-04-29T02:47:47.854Z,84.69
2019-04-29T02:48:31.772Z,85.17
2019-04-29T02:49:08.974Z,84.88
2019-04-29T02:49:49.621Z,85.12
2019-04-29T02:50:30.209Z,85.21
2019-04-29T02:51:10.845Z,84.69
2019-04-29T02:51:51.391Z,84.69
2019-04-29T02:52:31.942Z,84.98
2019-04-29T02:53:12.494Z,84.98
2019-04-29T02:53:53.070Z,85.17
2019-04-29T02:54:33.631Z,85.21
2019-04-29T02:55:14.215Z,85.17
2019-04-29T02:55:54.779Z,84.92
2019-04-29T02:56:35.417Z,85.02
2019-04-29T02:57:15.980Z,85.08
2019-04-29T02:57:56.541Z,84.98
2019-04-29T02:58:37.094Z,85.08
2019-04-29T02:59:17.663Z,85.17
2019-04-29T02:59:58.254Z,85.08
2019-04-29T03:00:38.823Z,85.64
2019-04-29T03:01:19.404Z,85.46
2019-04-29T03:01:59.984Z,85.36
2019-04-29T03:02:40.543Z,85.46
2019-04-29T03:03:21.113Z,85.84
2019-04-29T03:04:01.677Z,85.36
2019-04-29T03:04:42.293Z,85.55
2019-04-29T03:05:22.794Z,84.98
2019-04-29T03:06:03.356Z,85.17
2019-04-29T03:06:43.973Z,84.69
2019-04-29T03:07:24.536Z,85.17
2019-04-29T03:08:05.144Z,85.08
2019-04-29T03:08:45.693Z,85.46
2019-04-29T03:12:01.837Z,85.93
2019-04-29T03:12:40.742Z,85.84
2019-04-29T03:13:21.328Z,85.84
2019-04-29T03:14:01.880Z,85.55
2019-04-29T03:14:42.513Z,85.55
2019-04-29T03:15:23.062Z,85.55
2019-04-29T03:16:03.645Z,85.55
2019-04-29T03:16:44.265Z,85.84
2019-04-29T03:17:25.355Z,85.64
2019-04-29T03:18:05.919Z,86.69
2019-04-29T03:18:46.479Z,86.51
2019-04-29T03:19:27.038Z,86.6
2019-04-29T03:20:07.586Z,86.32
2019-04-29T03:20:48.203Z,86.41
2019-04-29T03:21:28.814Z,86.6
2019-04-29T03:22:09.406Z,86.6
2019-04-29T03:22:50.081Z,86.6
2019-04-29T03:23:30.694Z,86.41
2019-04-29T03:24:11.266Z,86.32
2019-04-29T03:24:51.931Z,86.41
2019-04-29T03:25:32.483Z,86.22
2019-04-29T03:26:13.080Z,86.12
2019-04-29T03:26:53.586Z,85.93
2019-04-29T03:27:34.146Z,86.12
2019-04-29T03:28:14.778Z,86.6
2019-04-29T03:28:55.344Z,86.51
2019-04-29T03:29:35.903Z,86.41
2019-04-29T03:30:16.449Z,86.41
2019-04-29T03:30:57.001Z,86.98
2019-04-29T03:31:39.241Z,86.12
2019-04-29T03:32:18.122Z,87.17
2019-04-29T03:32:58.675Z,86.12
2019-04-29T03:33:39.996Z,86.32
2019-04-29T03:34:20.531Z,86.79
2019-04-29T03:35:01.106Z,87.27
2019-04-29T03:35:41.667Z,87.07
2019-04-29T03:36:22.249Z,87.07
2019-04-29T03:37:02.799Z,87.36
2019-04-29T03:37:43.359Z,86.79
2019-04-29T03:38:23.918Z,86.6
2019-04-29T03:39:04.462Z,87.27
2019-04-29T03:39:45.038Z,86.98
2019-04-29T03:40:25.624Z,86.69
2019-04-29T03:41:06.262Z,87.17
2019-04-29T03:41:46.862Z,87.27
2019-04-29T03:42:27.405Z,87.07
2019-04-29T03:43:07.972Z,87.36
2019-04-29T03:43:48.562Z,87.55
2019-04-29T03:44:29.147Z,87.36
2019-04-29T03:45:09.745Z,87.55
2019-04-29T03:45:50.350Z,87.55
2019-04-29T03:46:30.900Z,87.17
2019-04-29T03:47:11.448Z,87.65
2019-04-29T03:47:52.004Z,87.84
2019-04-29T03:48:32.580Z,87.84
2019-04-29T03:49:13.166Z,87.46
2019-04-29T03:49:53.697Z,87.84
2019-04-29T03:50:34.275Z,87.65
2019-04-29T03:51:14.837Z,88.03
2019-04-29T03:51:55.423Z,87.55
2019-04-29T03:52:35.998Z,87.84
2019-04-29T03:53:16.565Z,87.74
2019-04-29T03:53:57.146Z,87.84
2019-04-29T03:54:37.708Z,87.65
2019-04-29T03:55:18.258Z,87.74
2019-04-29T03:55:58.886Z,87.84
2019-04-29T03:56:39.467Z,88.12
2019-04-29T03:57:20.015Z,88.03
2019-04-29T03:58:00.568Z,88.79
2019-04-29T03:58:41.132Z,88.6
2019-04-29T03:59:21.696Z,88.7
2019-04-29T04:00:02.263Z,88.79
2019-04-29T04:00:44.164Z,87.93
2019-04-29T04:01:23.381Z,88.12
2019-04-29T04:02:03.928Z,88.03
2019-04-29T04:02:44.489Z,88.22
2019-04-29T04:03:25.094Z,88.7
2019-04-29T04:04:05.688Z,88.41
2019-04-29T04:04:46.273Z,88.79
2019-04-29T04:05:26.852Z,88.6
2019-04-29T04:06:07.402Z,89.17
2019-04-29T04:06:47.992Z,88.98
2019-04-29T04:07:28.678Z,89.17
2019-04-29T04:08:09.239Z,88.98
2019-04-29T04:09:04.643Z,88.6
2019-04-29T04:09:30.594Z,88.7
2019-04-29T04:10:11.203Z,88.31
2019-04-29T04:10:51.767Z,88.03
2019-04-29T04:11:32.421Z,88.22
2019-04-29T04:12:13.117Z,88.79
2019-04-29T04:12:53.900Z,88.51
2019-04-29T04:13:34.478Z,88.6
2019-04-29T04:14:15.055Z,88.51
2019-04-29T04:14:55.630Z,88.51
2019-04-29T04:15:36.272Z,87.93
2019-04-29T04:16:16.794Z,88.22
2019-04-29T04:16:57.398Z,88.22
2019-04-29T04:17:37.960Z,88.89
2019-04-29T04:18:18.541Z,88.51
2019-04-29T04:18:59.317Z,88.12
2019-04-29T04:19:40.085Z,88.12
2019-04-29T04:20:21.233Z,87.74
2019-04-29T04:21:02.232Z,88.31
2019-04-29T04:21:43.301Z,88.03
2019-04-29T04:22:24.257Z,88.12
2019-04-29T04:23:04.972Z,87.93
2019-04-29T04:23:45.546Z,88.22
2019-04-29T04:24:26.128Z,88.7
2019-04-29T04:25:06.712Z,88.31
2019-04-29T04:25:47.262Z,88.6
2019-04-29T04:26:27.847Z,88.7
2019-04-29T04:27:08.460Z,88.41
2019-04-29T04:27:49.089Z,88.51
2019-04-29T04:28:29.567Z,88.7
2019-04-29T04:29:10.147Z,89.17
2019-04-29T04:29:50.697Z,89.17
2019-04-29T04:30:31.275Z,89.65
2019-04-29T04:31:11.841Z,89.46
2019-04-29T04:31:52.422Z,89.36
2019-04-29T04:32:32.988Z,89.46
2019-04-29T04:33:13.572Z,89.46
2019-04-29T04:33:54.116Z,89.55
2019-04-29T04:34:34.745Z,89.65
2019-04-29T04:35:15.314Z,90.22
2019-04-29T04:35:55.868Z,90.5
2019-04-29T04:36:36.673Z,90.41
2019-04-29T04:37:17.243Z,90.22
2019-04-29T04:37:57.814Z,89.36
2019-04-29T04:38:38.374Z,89.55
2019-04-29T04:39:18.937Z,89.36
2019-04-29T04:39:59.544Z,89.46
2019-04-29T04:40:41.202Z,89.07
2019-04-29T04:41:21.943Z,88.89
2019-04-29T04:44:36.582Z,89.65
2019-04-29T04:45:17.380Z,89.84
2019-04-29T04:45:58.185Z,90.31
2019-04-29T04:46:39.017Z,90.22
2019-04-29T04:47:19.882Z,90.41
2019-04-29T04:48:00.783Z,90.41
2019-04-29T04:48:41.637Z,90.22
2019-04-29T04:49:22.736Z,89.94
2019-04-29T04:50:04.659Z,90.22
2019-04-29T04:50:45.335Z,90.12
2019-04-29T04:53:44.278Z,91.08
2019-04-29T04:54:25.400Z,90.98
2019-04-29T04:55:06.215Z,91.17
2019-04-29T04:55:47.003Z,90.79
2019-04-29T04:56:27.884Z,90.98
2019-04-29T04:57:08.571Z,90.89
2019-04-29T04:57:49.123Z,90.89
2019-04-29T04:58:29.706Z,90.6
2019-04-29T04:59:10.285Z,91.17
2019-04-29T04:59:50.864Z,90.89
2019-04-29T05:00:31.464Z,91.17
2019-04-29T05:01:12.061Z,91.27
2019-04-29T05:01:52.731Z,91.08
2019-04-29T05:02:33.247Z,90.6
2019-04-29T05:03:13.838Z,90.98
2019-04-29T05:03:54.356Z,91.08
2019-04-29T05:04:34.909Z,90.79
2019-04-29T05:05:15.495Z,90.89
2019-04-29T05:05:56.072Z,90.7
2019-04-29T05:06:36.632Z,90.7
2019-04-29T05:07:17.200Z,90.7
2019-04-29T05:07:57.762Z,90.5
2019-04-29T05:08:38.322Z,90.6
2019-04-29T05:09:18.879Z,90.41
2019-04-29T05:09:59.447Z,90.6
2019-04-29T05:10:40.204Z,89.84
2019-04-29T05:11:21.432Z,89.84
2019-04-29T05:12:02.510Z,90.08
2019-04-29T05:12:43.384Z,90.12
2019-04-29T05:13:28.087Z,89.94
2019-04-29T05:14:05.267Z,90.12
2019-04-29T05:17:19.270Z,90.22
2019-04-29T05:17:59.826Z,90.31
2019-04-29T05:18:40.399Z,90.22
2019-04-29T05:19:21.030Z,90.5
2019-04-29T05:20:01.603Z,90.6
2019-04-29T05:20:42.199Z,90.36
2019-04-29T05:21:22.734Z,90.93
2019-04-29T05:22:03.304Z,90.93
2019-04-29T05:22:43.883Z,90.84
2019-04-29T05:23:24.453Z,90.93
2019-04-29T05:24:05.006Z,91.03
2019-04-29T05:24:45.708Z,90.17
2019-04-29T05:25:26.584Z,90.36
2019-04-29T05:26:07.895Z,90.26
2019-04-29T05:26:48.775Z,90.55
2019-04-29T05:27:29.593Z,90.45
2019-04-29T05:28:10.397Z,91.03
2019-04-29T05:28:51.221Z,90.98
2019-04-29T05:29:31.904Z,91.41
2019-04-29T05:30:12.575Z,92.27
2019-04-29T05:30:53.161Z,92.46
2019-04-29T05:31:33.758Z,91.41
2019-04-29T05:32:14.393Z,91.31
2019-04-29T05:32:55.066Z,91.41
2019-04-29T05:33:35.686Z,91.41
2019-04-29T05:34:16.282Z,91.98
2019-04-29T05:34:57.060Z,92.93
2019-04-29T05:35:40.177Z,92.65
2019-04-29T05:36:18.340Z,92.74
2019-04-29T05:36:58.918Z,92.17
2019-04-29T05:37:39.622Z,92.27
2019-04-29T05:38:20.312Z,92.17
2019-04-29T05:39:01.010Z,92.08
2019-04-29T05:39:41.696Z,92.08
2019-04-29T05:40:22.357Z,91.6
2019-04-29T05:41:02.981Z,91.22
2019-04-29T05:41:43.618Z,90.98
2019-04-29T05:42:24.308Z,90.93
2019-04-29T05:43:05.264Z,91.17
2019-04-29T05:43:45.653Z,91.55
2019-04-29T05:44:26.302Z,91.17
2019-04-29T05:45:06.975Z,91.07
2019-04-29T05:45:47.854Z,90.98
2019-04-29T05:46:28.396Z,91.07
2019-04-29T05:47:09.185Z,90.41
2019-04-29T05:47:52.221Z,89.64
2019-04-29T05:48:31.977Z,88.59
2019-04-29T05:49:10.966Z,88.12
2019-04-29T05:49:51.643Z,87.83
2019-04-29T05:50:32.273Z,87.83
2019-04-29T05:51:12.797Z,87.64
2019-04-29T05:51:53.432Z,87.83
2019-04-29T05:52:34.623Z,87.93
2019-04-29T05:53:16.077Z,88.12
2019-04-29T05:53:55.969Z,88.31
2019-04-29T05:54:35.982Z,88.31
2019-04-29T05:55:16.583Z,88.26
2019-04-29T05:55:57.180Z,88.55
2019-04-29T05:56:37.829Z,88.64
2019-04-29T05:57:20.294Z,88.93
2019-04-29T05:58:02.954Z,89.5
2019-04-29T05:58:39.742Z,90.08
2019-04-29T05:59:20.369Z,90.08
2019-04-29T06:00:00.977Z,90.36
2019-04-29T06:00:41.641Z,90.45
2019-04-29T06:01:22.341Z,91.22
2019-04-29T06:02:02.915Z,90.93
2019-04-29T06:02:43.474Z,90.64
2019-04-29T06:03:24.041Z,91.22
2019-04-29T06:04:04.598Z,91.22
2019-04-29T06:04:48.038Z,90.84
2019-04-29T06:05:25.740Z,91.03
2019-04-29T06:06:06.296Z,90.84
2019-04-29T06:06:46.897Z,90.93
2019-04-29T06:07:27.432Z,90.79
2019-04-29T06:08:07.985Z,91.31
2019-04-29T06:08:48.537Z,91.41
2019-04-29T06:09:29.100Z,92.08
2019-04-29T06:10:09.690Z,92.08
2019-04-29T06:10:50.264Z,92.27
2019-04-29T06:11:30.849Z,92.84
2019-04-29T06:12:11.883Z,92.5
2019-04-29T06:12:52.462Z,92.55
2019-04-29T06:13:33.083Z,92.55
2019-04-29T06:14:13.609Z,92.17
2019-04-29T06:14:54.193Z,91.88
2019-04-29T06:15:34.773Z,91.79
2019-04-29T06:16:15.785Z,91.88
2019-04-29T06:16:57.448Z,92.08
2019-04-29T06:17:39.906Z,92.74
2019-04-29T06:18:17.590Z,92.84
2019-04-29T06:19:00.141Z,92.55
2019-04-29T06:19:39.203Z,92.93
2019-04-29T06:20:22.519Z,92.55
2019-04-29T06:21:08.589Z,92.93
2019-04-29T06:21:40.129Z,92.46
2019-04-29T06:22:20.713Z,92.46
2019-04-29T06:23:01.286Z,93.03
2019-04-29T06:23:41.855Z,92.55
2019-04-29T06:24:22.436Z,92.65
2019-04-29T06:25:03.027Z,92.55
2019-04-29T06:25:43.593Z,92.84
2019-04-29T06:26:24.156Z,92.74
2019-04-29T06:27:04.749Z,92.27
2019-04-29T06:27:45.337Z,92.6
2019-04-29T06:28:27.895Z,92.65
2019-04-29T06:29:06.549Z,92.74
2019-04-29T06:29:47.158Z,93.51
2019-04-29T06:30:27.700Z,93.41
2019-04-29T06:31:08.370Z,93.32
2019-04-29T06:31:48.968Z,93.41
2019-04-29T06:32:29.551Z,93.22
2019-04-29T06:33:10.120Z,93.03
2019-04-29T06:33:50.727Z,92.93
2019-04-29T06:34:31.340Z,92.93
2019-04-29T06:35:14.108Z,92.46
2019-04-29T06:35:52.456Z,93.32
2019-04-29T06:36:33.039Z,92.84
2019-04-29T06:37:13.637Z,92.65
2019-04-29T06:37:54.210Z,92.93
2019-04-29T06:38:34.777Z,92.65
2019-04-29T06:39:15.342Z,92.84
2019-04-29T06:39:55.973Z,92.84
2019-04-29T06:40:36.917Z,92.65
2019-04-29T06:41:17.112Z,92.65
2019-04-29T06:41:57.668Z,92.84
2019-04-29T06:42:38.253Z,93.51
2019-04-29T06:43:18.823Z,93.88
2019-04-29T06:44:00.531Z,93.32
2019-04-29T06:44:39.966Z,93.41
2019-04-29T06:45:20.503Z,93.6
2019-04-29T06:46:01.080Z,94.17
2019-04-29T06:46:41.666Z,93.6
2019-04-29T06:47:23.716Z,94.17
2019-04-29T06:48:04.341Z,94.17
2019-04-29T06:48:44.912Z,94.08
2019-04-29T06:49:25.586Z,94.17
2019-04-29T06:50:06.199Z,94.27
2019-04-29T06:50:49.596Z,94.17
2019-04-29T06:51:27.333Z,93.88
2019-04-29T06:52:07.886Z,93.98
2019-04-29T06:52:48.475Z,93.6
2019-04-29T06:53:29.095Z,93.51
2019-04-29T06:54:09.674Z,94.27
2019-04-29T06:54:50.248Z,93.6
2019-04-29T06:55:30.818Z,93.6
2019-04-29T06:56:11.397Z,93.7
2019-04-29T06:56:51.952Z,93.41
2019-04-29T06:57:32.519Z,93.46
2019-04-29T06:58:13.091Z,93.79
2019-04-29T06:58:53.650Z,93.88
2019-04-29T06:59:34.245Z,94.27
2019-04-29T07:00:17.476Z,94.27
2019-04-29T07:01:00.220Z,94.17
2019-04-29T07:01:37.433Z,93.98
2019-04-29T07:02:16.478Z,94.17
2019-04-29T07:02:57.052Z,93.98
2019-04-29T07:03:37.610Z,93.98
2019-04-29T07:04:18.179Z,93.98
2019-04-29T07:04:58.761Z,94.65
2019-04-29T07:05:39.298Z,94.56
2019-04-29T07:06:19.847Z,95.12
2019-04-29T07:07:00.424Z,95.12
2019-04-29T07:07:41.008Z,94.93
2019-04-29T07:08:21.584Z,95.03
2019-04-29T07:09:02.141Z,94.65
2019-04-29T07:09:42.701Z,94.27
2019-04-29T07:10:26.933Z,93.88
2019-04-29T07:11:03.886Z,94.37
2019-04-29T07:11:44.448Z,94.17
2019-04-29T07:12:25.005Z,94.46
2019-04-29T07:13:05.561Z,93.98
2019-04-29T07:13:46.668Z,94.46
2019-04-29T07:14:28.225Z,94.74
2019-04-29T07:15:07.532Z,95.12
2019-04-29T07:15:48.970Z,94.84
2019-04-29T07:16:31.854Z,94.74
2019-04-29T07:17:08.949Z,94.84
2019-04-29T07:17:49.537Z,94.56
2019-04-29T07:18:30.112Z,93.88
2019-04-29T07:19:10.671Z,93.6
2019-04-29T07:19:51.223Z,93.88
2019-04-29T07:20:32.352Z,93.88
2019-04-29T07:21:13.063Z,93.88
2019-04-29T07:21:55.033Z,93.88
2019-04-29T07:22:33.474Z,94.37
2019-04-29T07:23:14.035Z,94.17
2019-04-29T07:23:54.613Z,94.46
2019-04-29T07:24:35.182Z,93.79
2019-04-29T07:25:15.742Z,94.17
2019-04-29T07:25:56.296Z,94.37
2019-04-29T07:26:36.871Z,94.74
2019-04-29T07:27:17.412Z,94.65
2019-04-29T07:27:58.002Z,94.65
2019-04-29T07:28:38.554Z,95.03
2019-04-29T07:29:19.612Z,94.84
2019-04-29T07:30:01.618Z,95.22
2019-04-29T07:31:00.211Z,94.84
2019-04-29T07:31:20.792Z,95.22
2019-04-29T07:32:04.666Z,95.7
2019-04-29T07:32:46.686Z,95.51
2019-04-29T07:33:24.308Z,95.51
2019-04-29T07:34:03.024Z,95.12
2019-04-29T07:34:43.571Z,95.51
2019-04-29T07:35:24.148Z,94.37
2019-04-29T07:36:11.015Z,94.56
2019-04-29T07:36:45.241Z,94.74
2019-04-29T07:37:25.829Z,94.37
2019-04-29T07:38:08.511Z,94.56
2019-04-29T07:38:51.209Z,93.98
2019-04-29T07:39:31.617Z,93.98
2019-04-29T07:40:09.288Z,94.08
2019-04-29T07:40:48.655Z,93.51
2019-04-29T07:41:29.181Z,94.08
2019-04-29T07:42:09.760Z,94.17
2019-04-29T07:42:50.315Z,93.32
2019-04-29T07:43:30.912Z,93.88
2019-04-29T07:44:13.585Z,93.88
2019-04-29T07:44:52.669Z,93.6
2019-04-29T07:45:43.524Z,93.51
2019-04-29T07:46:16.069Z,94.17
2019-04-29T07:46:59.267Z,93.79
2019-04-29T07:47:34.306Z,93.88
2019-04-29T07:48:14.855Z,93.79
2019-04-29T07:49:01.555Z,93.7
2019-04-29T07:49:35.989Z,94.17
2019-04-29T07:50:16.632Z,93.6
2019-04-29T07:50:59.363Z,93.7
2019-04-29T07:51:39.382Z,94.27
2019-04-29T07:52:18.226Z,93.51
2019-04-29T07:52:58.797Z,93.79
2019-04-29T07:53:44.987Z,93.98
2019-04-29T07:54:19.927Z,94.27
2019-04-29T07:55:00.496Z,93.88
2019-04-29T07:55:41.108Z,93.88
2019-04-29T07:56:21.678Z,93.7
2019-04-29T07:57:02.227Z,93.7
2019-04-29T07:57:42.793Z,93.6
2019-04-29T07:58:27.222Z,93.7
2019-04-29T07:59:04.622Z,93.55
2019-04-29T07:59:44.514Z,93.98
2019-04-29T08:00:25.075Z,93.88
2019-04-29T08:01:05.647Z,93.32
2019-04-29T08:01:46.242Z,93.98
2019-04-29T08:02:26.793Z,93.98
2019-04-29T08:03:07.351Z,93.65
2019-04-29T08:03:47.900Z,93.79
2019-04-29T08:04:28.464Z,93.6
2019-04-29T08:05:09.080Z,93.32
2019-04-29T08:05:49.658Z,93.12
2019-04-29T08:06:30.233Z,93.74
2019-04-29T08:07:10.765Z,93.65
2019-04-29T08:07:51.356Z,93.79
2019-04-29T08:08:31.917Z,93.41
2019-04-29T08:09:12.513Z,93.7
2019-04-29T08:09:53.068Z,93.27
2019-04-29T08:10:33.676Z,93.6
2019-04-29T08:11:14.194Z,93.41
2019-04-29T08:11:55.153Z,93.79
2019-04-29T08:12:35.745Z,93.22
2019-04-29T08:13:16.314Z,93.51
2019-04-29T08:13:56.930Z,93.32
2019-04-29T08:14:37.479Z,93.79
2019-04-29T08:15:18.059Z,93.32
2019-04-29T08:15:58.614Z,93.88
2019-04-29T08:16:39.181Z,93.98
2019-04-29T08:17:19.741Z,93.7
2019-04-29T08:18:06.553Z,93.7
2019-04-29T08:18:40.865Z,93.7
2019-04-29T08:19:24.496Z,94.08
2019-04-29T08:20:05.115Z,94.22
2019-04-29T08:20:42.623Z,93.65
2019-04-29T08:21:23.174Z,93.7
2019-04-29T08:22:03.743Z,93.7
2019-04-29T08:22:44.315Z,93.79
2019-04-29T08:23:24.906Z,93.6
2019-04-29T08:24:05.484Z,93.84
2019-04-29T08:24:50.351Z,93.51
2019-04-29T08:25:27.193Z,93.7
2019-04-29T08:26:07.177Z,93.51
2019-04-29T08:26:47.973Z,93.51
2019-04-29T08:27:39.189Z,93.51
2019-04-29T08:28:08.911Z,93.41
2019-04-29T08:28:52.423Z,93.51
2019-04-29T08:29:30.696Z,93.6
2019-04-29T08:30:11.198Z,92.55
2019-04-29T08:30:51.210Z,93.12
2019-04-29T08:31:31.766Z,93.12
2019-04-29T08:32:12.333Z,93.51
2019-04-29T08:32:52.890Z,93.6
2019-04-29T08:33:33.452Z,94.17
2019-04-29T08:34:14.005Z,94.17
2019-04-29T08:34:57.773Z,93.88
2019-04-29T08:35:36.735Z,93.6
2019-04-29T08:36:15.708Z,93.7
2019-04-29T08:39:14.593Z,93.7
2019-04-29T08:40:08.565Z,93.84
2019-04-29T08:40:35.718Z,93.55
2019-04-29T08:41:16.282Z,92.32
2019-04-29T08:41:58.787Z,91.31
2019-04-29T08:42:41.359Z,91.03
2019-04-29T08:43:20.537Z,91.07
2019-04-29T08:44:15.148Z,92.08
2019-04-29T08:44:39.157Z,92.22
2019-04-29T08:45:19.722Z,92.74
2019-04-29T08:46:00.284Z,92.84
2019-04-29T08:46:43.902Z,92.84
2019-04-29T08:47:22.923Z,92.84
2019-04-29T08:48:02.009Z,92.65
2019-04-29T08:48:45.530Z,92.74
2019-04-29T08:49:23.174Z,92.55
2019-04-29T08:50:03.770Z,92.36
2019-04-29T08:50:44.338Z,92.32
2019-04-29T08:51:24.915Z,91.98
2019-04-29T08:52:05.485Z,91.88
2019-04-29T08:52:46.037Z,92.36
2019-04-29T08:53:26.617Z,92.36
2019-04-29T08:54:07.170Z,92.12
2019-04-29T08:54:50.600Z,92.55
2019-04-29T08:55:30.868Z,92.08
2019-04-29T08:56:10.093Z,92.55
2019-04-29T08:57:02.122Z,91.6
2019-04-29T08:57:31.699Z,92.27
2019-04-29T08:58:11.379Z,92.46
2019-04-29T08:58:51.310Z,92.46
2019-04-29T08:59:31.864Z,91.6
2019-04-29T09:00:12.421Z,91.88
2019-04-29T09:00:55.666Z,91.88
2019-04-29T09:01:35.504Z,92.46
2019-04-29T09:02:14.117Z,92.32
2019-04-29T09:02:54.702Z,92.03